Time;durP1;ratioP1;P1;durP2;ratioP2;P2;SDS_P1;SDS_P2;PMS_P1;PMS_P2;Temp;Humidity;BMP_temperature;BMP_pressure;BME280_temperature;BME280_humidity;BME280_pressure;Samples;Min_cycle;Max_cycle;Signal;HPM_P1;HPM_P2
2022/10/24 00:00:06;;;;;;;4.00;1.90;;;;;;;13.47;100.00;100390.00;5010772;28;20692;-77
2022/10/24 00:02:31;;;;;;;3.90;2.00;;;;;;;13.67;100.00;100405.88;5009349;28;20192;-76
2022/10/24 00:04:56;;;;;;;2.70;1.60;;;;;;;12.78;100.00;100268.28;5013007;28;21261;-78
2022/10/24 00:07:23;;;;;;;6.40;2.20;;;;;;;13.81;100.00;100451.53;5012697;28;20629;-77
2022/10/24 00:09:49;;;;;;;6.20;2.50;;;;;;;13.57;100.00;100397.53;4996300;28;20188;-79
2022/10/24 00:12:14;;;;;;;3.10;1.63;;;;;;;12.91;100.00;100267.28;5014073;28;20888;-76
2022/10/24 00:14:40;;;;;;;6.27;1.93;;;;;;;13.96;100.00;100457.31;5013544;28;20557;-76
2022/10/24 00:17:06;;;;;;;6.90;2.00;;;;;;;14.06;100.00;100486.41;5005307;28;20250;-78
2022/10/24 00:19:32;;;;;;;4.20;1.70;;;;;;;13.40;100.00;100394.66;5019990;28;20220;-81
2022/10/24 00:21:57;;;;;;;6.63;2.00;;;;;;;12.91;100.00;100277.25;5012085;28;20525;-77
2022/10/24 00:24:24;;;;;;;3.97;2.50;;;;;;;14.20;100.00;100469.81;5012755;28;26612;-77
2022/10/24 00:26:50;;;;;;;4.10;1.80;;;;;;;13.65;100.00;100412.53;5011554;28;20193;-76
2022/10/24 00:29:15;;;;;;;6.17;1.90;;;;;;;13.36;100.00;100371.09;5007964;28;20562;-76
2022/10/24 00:31:40;;;;;;;4.40;1.97;;;;;;;12.66;100.00;100253.94;5012905;28;20451;-76
2022/10/24 00:34:06;;;;;;;3.87;2.20;;;;;;;13.50;100.00;100392.22;5009270;28;20219;-78
2022/10/24 00:36:32;;;;;;;9.07;2.40;;;;;;;12.98;100.00;100286.03;5007736;28;20180;-76
2022/10/24 00:38:57;;;;;;;4.77;1.90;;;;;;;13.97;100.00;100458.94;5009834;28;20526;-76
2022/10/24 00:41:26;;;;;;;4.80;1.60;;;;;;;13.84;100.00;100414.13;5010460;28;20226;-76
2022/10/24 00:44:15;;;;;;;4.17;2.00;;;;;;;14.59;100.00;100529.59;5011582;28;20188;-77
2022/10/24 00:46:46;;;;;;;6.67;2.10;;;;;;;13.30;100.00;100346.72;5008278;28;20440;-77
2022/10/24 00:49:15;;;;;;;7.33;2.30;;;;;;;13.46;100.00;100379.47;4997046;28;20829;-78
2022/10/24 00:51:41;;;;;;;3.40;1.67;;;;;;;12.73;100.00;100227.78;5013833;28;20533;-77
2022/10/24 00:54:10;;;;;;;5.77;1.87;;;;;;;13.67;100.00;100411.28;5011417;28;20546;-78
2022/10/24 00:56:42;;;;;;;3.50;1.83;;;;;;;13.46;100.00;100382.16;5007154;28;20928;-77
2022/10/24 00:59:11;;;;;;;3.57;1.97;;;;;;;12.97;100.00;100281.72;5008549;28;20478;-77
2022/10/24 01:01:37;;;;;;;3.07;1.50;;;;;;;13.18;100.00;100351.19;5009739;28;20590;-78
2022/10/24 01:04:03;;;;;;;4.97;1.80;;;;;;;12.87;100.00;100277.69;5012464;28;20439;-77
2022/10/24 01:07:01;;;;;;;10.53;1.90;;;;;;;13.64;100.00;100384.78;5010324;28;20800;-81
2022/10/24 01:09:42;;;;;;;3.73;1.73;;;;;;;14.48;100.00;100517.69;4967394;28;20220;-78
2022/10/24 01:12:32;;;;;;;5.57;1.83;;;;;;;12.65;100.00;100220.84;5009524;28;20802;-78
2022/10/24 01:15:13;;;;;;;4.03;1.60;;;;;;;13.28;100.00;100343.44;5012643;28;20477;-80
2022/10/24 01:17:51;;;;;;;3.97;1.70;;;;;;;12.78;100.00;100292.50;5014969;28;20478;-78
2022/10/24 01:20:38;;;;;;;3.80;1.50;;;;;;;14.36;100.00;100526.84;5012014;28;20472;-78
2022/10/24 01:23:27;;;;;;;2.37;1.60;;;;;;;14.41;100.00;100527.78;5012534;28;20447;-78
2022/10/24 01:26:04;;;;;;;8.27;1.80;;;;;;;14.36;100.00;100554.63;5016536;28;20494;-79
2022/10/24 01:28:36;;;;;;;2.07;1.40;;;;;;;13.77;100.00;100430.41;4997873;28;20775;-79
2022/10/24 01:31:10;;;;;;;3.93;1.70;;;;;;;12.47;100.00;100230.78;5014275;28;20518;-79
2022/10/24 01:33:44;;;;;;;3.40;1.80;;;;;;;12.39;100.00;100231.94;5012126;28;20518;-77
2022/10/24 01:36:41;;;;;;;4.53;1.93;;;;;;;12.98;100.00;100346.06;5018800;28;20450;-77
2022/10/24 01:39:13;;;;;;;6.17;1.80;;;;;;;13.59;100.00;100424.25;5015209;28;20493;-78
2022/10/24 01:41:41;;;;;;;8.07;1.77;;;;;;;12.59;100.00;100282.81;4996434;28;20454;-78
2022/10/24 01:44:13;;;;;;;4.80;1.53;;;;;;;14.22;100.00;100507.31;5013612;28;20838;-79
2022/10/24 01:46:43;;;;;;;5.70;1.80;;;;;;;12.38;100.00;100225.75;5017783;28;21673;-78
2022/10/24 01:49:14;;;;;;;7.50;1.80;;;;;;;13.69;100.00;100446.91;5014657;28;20470;-79
2022/10/24 01:51:41;;;;;;;4.67;2.07;;;;;;;13.52;100.00;100397.41;5015114;28;20435;-78
2022/10/24 01:54:08;;;;;;;2.43;1.50;;;;;;;13.32;100.00;100398.50;5016159;28;20443;-79
2022/10/24 01:56:34;;;;;;;5.40;1.60;;;;;;;13.04;100.00;100338.97;5015124;28;20827;-77
2022/10/24 01:59:08;;;;;;;4.03;1.40;;;;;;;12.64;100.00;100247.97;5017041;28;20478;-78
2022/10/24 02:01:35;;;;;;;4.00;1.37;;;;;;;13.58;100.00;100377.63;5016201;28;20185;-79
2022/10/24 02:04:07;;;;;;;3.83;1.50;;;;;;;12.57;100.00;100237.28;5018948;28;20891;-78
2022/10/24 02:06:40;;;;;;;5.83;2.13;;;;;;;12.58;100.00;100214.75;5019693;28;20435;-78
2022/10/24 02:09:10;;;;;;;4.13;1.60;;;;;;;14.16;100.00;100495.56;5012545;28;20563;-77
2022/10/24 02:11:37;;;;;;;4.30;1.40;;;;;;;12.87;100.00;100301.06;5021798;28;20438;-77
2022/10/24 02:14:13;;;;;;;3.13;1.20;;;;;;;12.26;100.00;100170.25;5019003;28;20559;-78
2022/10/24 02:16:40;;;;;;;3.23;1.40;;;;;;;12.81;100.00;100283.97;5022721;28;20414;-77
2022/10/24 02:19:06;;;;;;;4.37;1.63;;;;;;;13.36;100.00;100365.72;5020996;28;20589;-77
2022/10/24 02:21:46;;;;;;;4.43;1.50;;;;;;;14.01;100.00;100444.78;5020606;28;20964;-78
2022/10/24 02:24:17;;;;;;;3.13;1.50;;;;;;;14.08;100.00;100443.84;5002322;28;20637;-77
2022/10/24 02:26:45;;;;;;;3.97;1.57;;;;;;;14.14;100.00;100440.22;5018842;28;20477;-78
2022/10/24 02:29:36;;;;;;;4.20;1.40;;;;;;;13.29;100.00;100301.16;5019032;28;20460;-77
2022/10/24 02:32:06;;;;;;;3.00;1.63;;;;;;;12.69;100.00;100175.47;5020012;28;20458;-77
2022/10/24 02:34:34;;;;;;;3.40;2.03;;;;;;;12.73;100.00;100211.66;5020026;28;20942;-77
2022/10/24 02:37:01;;;;;;;3.47;1.70;;;;;;;12.87;100.00;100210.41;5021544;28;20517;-78
2022/10/24 02:39:29;;;;;;;3.60;1.73;;;;;;;13.22;100.00;100258.16;5001420;28;20848;-78
2022/10/24 02:41:56;;;;;;;4.03;1.50;;;;;;;13.46;100.00;100283.28;5010944;28;20459;-78
2022/10/24 02:44:23;;;;;;;3.67;1.60;;;;;;;13.19;100.00;100220.91;5020793;28;20614;-78
2022/10/24 02:46:53;;;;;;;7.30;1.57;;;;;;;13.13;100.00;100186.81;5018871;28;20444;-79
2022/10/24 02:49:19;;;;;;;7.00;2.13;;;;;;;13.96;100.00;100317.09;5018807;28;20454;-79
2022/10/24 02:51:46;;;;;;;3.13;1.70;;;;;;;13.54;100.00;100265.97;5006588;28;20513;-77
2022/10/24 02:54:12;;;;;;;6.20;2.13;;;;;;;13.48;100.00;100248.03;5021419;28;20493;-78
2022/10/24 02:56:45;;;;;;;4.77;1.97;;;;;;;13.04;100.00;100142.44;5021251;28;20911;-78
2022/10/24 02:59:11;;;;;;;5.47;1.70;;;;;;;13.49;100.00;100236.22;5019553;28;20475;-78
2022/10/24 03:01:36;;;;;;;3.43;1.87;;;;;;;13.74;100.00;100271.00;5021471;28;20431;-78
2022/10/24 03:04:02;;;;;;;5.30;1.90;;;;;;;14.02;100.00;100287.31;5012450;28;20188;-77
2022/10/24 03:06:27;;;;;;;5.20;1.87;;;;;;;12.91;100.00;100107.66;5022368;28;20223;-78
2022/10/24 03:08:52;;;;;;;11.87;2.67;;;;;;;13.92;100.00;100275.50;5020024;28;20283;-78
2022/10/24 03:11:18;;;;;;;5.53;1.87;;;;;;;14.08;100.00;100296.34;5021229;28;20184;-77
2022/10/24 03:13:43;;;;;;;4.37;2.07;;;;;;;12.95;100.00;100082.72;5003771;28;20216;-79
2022/10/24 03:16:09;;;;;;;4.83;1.80;;;;;;;13.16;100.00;100129.78;5018566;28;20188;-77
2022/10/24 03:18:34;;;;;;;3.47;1.70;;;;;;;14.41;100.00;100325.41;5016930;28;20636;-78
2022/10/24 03:21:00;;;;;;;6.23;2.40;;;;;;;14.25;100.00;100291.06;5018560;28;20193;-80
2022/10/24 03:23:27;;;;;;;5.03;2.07;;;;;;;13.42;100.00;100139.31;5017813;28;20196;-79
2022/10/24 03:25:55;;;;;;;7.97;2.30;;;;;;;13.11;100.00;100073.16;5017945;28;20271;-78
2022/10/24 03:28:20;;;;;;;6.77;2.43;;;;;;;14.13;100.00;100239.00;5015677;28;20455;-78
2022/10/24 03:30:46;;;;;;;4.47;2.77;;;;;;;13.92;100.00;100221.56;5016091;28;20869;-81
2022/10/24 03:33:11;;;;;;;4.67;1.90;;;;;;;13.21;100.00;100054.53;5020229;28;20696;-78
2022/10/24 03:35:37;;;;;;;6.30;2.00;;;;;;;14.24;100.00;100230.09;5002399;28;20740;-78
2022/10/24 03:38:02;;;;;;;4.10;1.67;;;;;;;13.89;100.00;100200.47;5018707;28;20212;-80
2022/10/24 03:40:28;;;;;;;11.20;2.17;;;;;;;14.57;100.00;100306.88;5021402;28;20427;-78
2022/10/24 03:42:54;;;;;;;5.57;2.17;;;;;;;13.44;100.00;100114.84;5021730;28;20630;-78
2022/10/24 03:45:19;;;;;;;5.80;1.83;;;;;;;13.54;100.00;100096.25;5016272;28;20477;-79
2022/10/24 03:47:45;;;;;;;18.70;2.47;;;;;;;13.97;100.00;100190.16;5005505;28;20215;-78
2022/10/24 03:50:10;;;;;;;5.10;1.57;;;;;;;14.58;100.00;100244.59;5013913;28;20239;-78
2022/10/24 03:52:35;;;;;;;3.50;1.93;;;;;;;13.57;100.00;100104.66;5016841;28;20192;-79
2022/10/24 03:55:01;;;;;;;3.43;1.83;;;;;;;14.12;100.00;100197.75;4996950;28;20193;-78
2022/10/24 03:57:26;;;;;;;5.17;1.90;;;;;;;13.38;100.00;100033.09;5015405;28;20211;-79
2022/10/24 03:59:52;;;;;;;6.33;2.43;;;;;;;13.65;100.00;100114.22;4998063;28;20204;-78
2022/10/24 04:02:17;;;;;;;3.67;1.70;;;;;;;14.13;100.00;100167.00;4997182;28;22909;-83
2022/10/24 04:04:43;;;;;;;5.50;1.87;;;;;;;13.37;100.00;100027.97;5013688;28;20188;-79
2022/10/24 04:07:08;;;;;;;4.70;2.33;;;;;;;14.30;100.00;100209.44;5020290;28;20192;-79
2022/10/24 04:09:34;;;;;;;4.70;2.13;;;;;;;14.62;100.00;100253.81;5018431;28;20208;-79
2022/10/24 04:11:59;;;;;;;6.10;2.23;;;;;;;13.29;100.00;100027.28;5021394;28;20212;-79
2022/10/24 04:14:24;;;;;;;4.67;1.80;;;;;;;13.57;100.00;100110.03;5025043;28;20315;-78
2022/10/24 04:16:50;;;;;;;5.53;2.17;;;;;;;13.76;100.00;100153.00;5024333;28;20192;-78
2022/10/24 04:19:18;;;;;;;7.10;2.20;;;;;;;14.22;100.00;100227.63;5020139;28;20724;-78
2022/10/24 04:21:46;;;;;;;5.27;2.03;;;;;;;13.40;100.00;100103.75;5023440;28;20189;-78
2022/10/24 04:24:12;;;;;;;6.43;2.00;;;;;;;13.99;100.00;100179.94;5004318;28;20530;-78
2022/10/24 04:26:38;;;;;;;6.07;1.80;;;;;;;13.52;100.00;100144.94;5021993;28;20976;-83
2022/10/24 04:29:03;;;;;;;6.40;2.40;;;;;;;14.25;100.00;100243.31;5023412;28;20443;-78
2022/10/24 04:31:29;;;;;;;5.87;2.33;;;;;;;13.55;100.00;100140.97;5004940;28;20180;-79
2022/10/24 04:33:54;;;;;;;5.70;1.97;;;;;;;13.62;100.00;100152.44;5020813;28;20267;-79
2022/10/24 04:36:20;;;;;;;4.90;2.07;;;;;;;13.95;100.00;100205.75;5024324;28;20180;-79
2022/10/24 04:38:45;;;;;;;4.03;1.93;;;;;;;13.77;100.00;100144.72;5022484;28;20227;-79
2022/10/24 04:41:11;;;;;;;11.93;2.67;;;;;;;13.31;100.00;100037.81;5006513;28;20189;-85
2022/10/24 04:43:36;;;;;;;8.03;2.43;;;;;;;13.47;100.00;100085.56;5023813;28;20181;-77
2022/10/24 04:46:02;;;;;;;6.33;1.80;;;;;;;13.88;100.00;100110.69;5021551;28;20662;-81
2022/10/24 04:48:27;;;;;;;7.83;2.50;;;;;;;14.39;100.00;100189.09;5024827;28;20200;-78
2022/10/24 04:50:53;;;;;;;6.83;2.47;;;;;;;14.39;100.00;100208.00;5022293;28;20184;-77
2022/10/24 04:53:18;;;;;;;7.43;2.20;;;;;;;13.93;100.00;100147.72;5024839;28;20624;-78
2022/10/24 04:55:44;;;;;;;3.03;1.90;;;;;;;14.96;100.00;100307.13;5022102;28;20537;-78
2022/10/24 04:58:10;;;;;;;8.60;1.97;;;;;;;13.55;100.00;100073.63;5004496;28;20273;-77
2022/10/24 05:00:36;;;;;;;6.83;2.30;;;;;;;14.65;100.00;100257.94;5022275;28;20283;-78
2022/10/24 05:03:01;;;;;;;3.30;2.00;;;;;;;13.50;100.00;100073.50;5023174;28;20189;-83
2022/10/24 05:05:27;;;;;;;4.70;2.13;;;;;;;13.85;100.00;100142.69;5023114;28;20184;-80
2022/10/24 05:07:52;;;;;;;5.73;2.20;;;;;;;13.37;100.00;100057.59;5006622;28;20208;-78
2022/10/24 05:10:18;;;;;;;9.67;2.40;;;;;;;13.92;100.00;100157.69;5023501;28;20655;-78
2022/10/24 05:12:43;;;;;;;5.73;2.30;;;;;;;13.26;100.00;99994.63;5021559;28;20229;-78
2022/10/24 05:15:09;;;;;;;8.33;2.03;;;;;;;14.07;100.00;100141.00;5021972;28;20189;-78
2022/10/24 05:17:35;;;;;;;5.50;2.03;;;;;;;13.20;100.00;100015.19;5022360;28;20606;-80
2022/10/24 05:20:01;;;;;;;12.90;2.50;;;;;;;13.67;100.00;100141.78;5021044;28;20443;-78
2022/10/24 05:22:26;;;;;;;4.77;1.63;;;;;;;13.56;100.00;100110.25;5023806;28;20187;-79
2022/10/24 05:24:51;;;;;;;8.33;2.07;;;;;;;14.79;100.00;100315.16;5020326;28;20188;-78
2022/10/24 05:27:23;;;;;;;6.70;2.20;;;;;;;13.53;100.00;100084.63;5015830;28;20184;-85
2022/10/24 05:29:52;;;;;;;4.77;1.53;;;;;;;13.08;100.00;100052.91;4999897;28;20215;-78
2022/10/24 05:32:22;;;;;;;5.83;1.90;;;;;;;13.89;100.00;100162.75;5024331;28;20432;-78
2022/10/24 05:34:47;;;;;;;9.20;2.30;;;;;;;13.25;100.00;100082.66;5022002;28;20464;-86
2022/10/24 05:37:13;;;;;;;7.00;2.43;;;;;;;13.04;100.00;100034.75;5016704;28;20569;-79
2022/10/24 05:39:38;;;;;;;3.87;1.80;;;;;;;13.90;100.00;100157.09;5023840;28;20212;-78
2022/10/24 05:42:04;;;;;;;5.50;1.83;;;;;;;12.80;100.00;99983.59;5002804;28;20188;-78
2022/10/24 05:44:30;;;;;;;8.07;1.63;;;;;;;14.68;100.00;100316.84;5017072;28;20185;-79
2022/10/24 05:46:55;;;;;;;6.20;1.87;;;;;;;13.37;100.00;100096.13;5018614;28;20193;-78
2022/10/24 05:49:21;;;;;;;5.80;1.73;;;;;;;12.86;100.00;99998.00;5017901;28;20291;-78
2022/10/24 05:51:46;;;;;;;6.70;1.93;;;;;;;13.30;100.00;100101.63;5018537;28;20188;-78
2022/10/24 05:54:11;;;;;;;5.40;1.50;;;;;;;12.61;100.00;99984.75;5019373;28;20562;-80
2022/10/24 05:56:37;;;;;;;6.63;1.70;;;;;;;13.16;100.00;100075.13;5020560;28;20192;-78
2022/10/24 05:59:02;;;;;;;4.40;1.70;;;;;;;12.73;100.00;99971.31;5015837;28;20221;-79
2022/10/24 06:01:29;;;;;;;6.67;2.10;;;;;;;13.60;100.00;100143.78;5020055;28;20747;-80
2022/10/24 06:03:54;;;;;;;5.70;1.57;;;;;;;13.50;100.00;100132.75;5021182;28;20266;-81
2022/10/24 06:06:20;;;;;;;7.83;2.13;;;;;;;12.85;100.00;100010.66;5011897;28;20947;-79
2022/10/24 06:08:45;;;;;;;4.10;1.80;;;;;;;12.77;100.00;99986.78;5015403;28;20756;-77
2022/10/24 06:11:11;;;;;;;8.50;1.93;;;;;;;12.70;100.00;99980.69;5021288;28;20664;-79
2022/10/24 06:13:38;;;;;;;4.13;1.70;;;;;;;12.50;100.00;99961.34;5022316;28;20338;-79
2022/10/24 06:16:08;;;;;;;12.73;2.27;;;;;;;13.78;100.00;100161.69;5019171;28;20770;-79
2022/10/24 06:18:35;;;;;;;3.57;1.77;;;;;;;14.43;100.00;100266.63;5005411;28;20852;-79
2022/10/24 06:21:02;;;;;;;3.87;1.67;;;;;;;12.92;100.00;100015.09;5021014;28;20521;-79
2022/10/24 06:23:28;;;;;;;5.50;1.57;;;;;;;13.00;100.00;100041.66;5021723;28;20482;-79
2022/10/24 06:25:53;;;;;;;6.77;1.73;;;;;;;13.31;100.00;100083.59;5013620;28;20978;-79
2022/10/24 06:28:19;;;;;;;12.17;1.80;;;;;;;12.88;100.00;100029.03;5021261;28;20692;-78
2022/10/24 06:30:47;;;;;;;3.43;1.80;;;;;;;12.62;100.00;99954.13;5021902;28;20379;-78
2022/10/24 06:33:12;;;;;;;5.83;2.10;;;;;;;12.98;100.00;100028.41;4998049;28;20192;-80
2022/10/24 06:35:38;;;;;;;3.13;1.60;;;;;;;14.36;100.00;100265.13;5017029;28;20792;-78
2022/10/24 06:38:03;;;;;;;5.70;2.03;;;;;;;13.45;100.00;100114.63;5020979;28;20672;-80
2022/10/24 06:40:29;;;;;;;9.53;1.77;;;;;;;14.60;100.00;100306.41;5019449;28;20214;-80
2022/10/24 06:42:56;;;;;;;7.53;2.13;;;;;;;12.99;100.00;100048.06;5021057;28;20185;-78
2022/10/24 06:45:22;;;;;;;7.03;2.10;;;;;;;12.81;100.00;99996.00;5020185;28;20642;-79
2022/10/24 06:47:48;;;;;;;5.17;1.60;;;;;;;13.18;100.00;100068.47;5020411;28;20439;-77
2022/10/24 06:50:14;;;;;;;2.63;1.20;;;;;;;13.07;100.00;100048.53;5019767;28;20434;-78
2022/10/24 06:52:39;;;;;;;4.73;1.60;;;;;;;13.51;100.00;100110.16;5010842;28;20447;-79
2022/10/24 06:55:05;;;;;;;7.10;1.80;;;;;;;12.91;100.00;100006.19;5002914;28;20276;-81
2022/10/24 06:57:31;;;;;;;7.17;1.70;;;;;;;13.82;100.00;100172.81;4995790;28;20203;-79
2022/10/24 06:59:56;;;;;;;5.10;1.40;;;;;;;13.36;100.00;100094.47;5018241;28;20458;-80
2022/10/24 07:02:22;;;;;;;5.17;1.77;;;;;;;13.56;100.00;100118.34;5011836;28;20196;-78
2022/10/24 07:04:47;;;;;;;4.30;1.30;;;;;;;12.97;100.00;99980.22;5002919;28;20193;-78
2022/10/24 07:07:18;;;;;;;2.73;1.30;;;;;;;13.25;100.00;100063.81;5017361;28;20185;-82
2022/10/24 07:09:44;;;;;;;5.43;1.60;;;;;;;13.75;100.00;100140.59;5017140;28;20192;-79
2022/10/24 07:12:10;;;;;;;6.33;1.60;;;;;;;13.65;100.00;100129.59;5018251;28;20451;-80
2022/10/24 07:14:35;;;;;;;5.23;2.07;;;;;;;13.27;100.00;100060.88;5010066;28;20447;-78
2022/10/24 07:17:01;;;;;;;5.27;1.87;;;;;;;13.19;100.00;100020.81;5015238;28;20447;-78
2022/10/24 07:19:26;;;;;;;6.93;1.50;;;;;;;13.66;100.00;100123.97;5017941;28;20216;-80
2022/10/24 07:21:52;;;;;;;6.97;1.43;;;;;;;13.47;100.00;100093.66;5002549;28;20192;-80
2022/10/24 07:24:18;;;;;;;5.00;1.50;;;;;;;14.31;100.00;100225.38;5016440;28;20858;-78
2022/10/24 07:26:44;;;;;;;4.70;1.20;;;;;;;12.78;100.00;99945.34;5019206;28;20189;-83
2022/10/24 07:29:09;;;;;;;4.90;1.70;;;;;;;13.12;100.00;100002.09;5015836;28;20455;-80
2022/10/24 07:31:35;;;;;;;4.53;1.10;;;;;;;13.32;100.00;100055.59;5020710;28;20675;-79
2022/10/24 07:34:03;;;;;;;5.23;1.77;;;;;;;13.38;100.00;100032.28;4999599;28;20555;-84
2022/10/24 07:36:31;;;;;;;3.03;1.20;;;;;;;13.81;100.00;100123.47;5017249;28;20447;-80
2022/10/24 07:38:58;;;;;;;5.27;1.80;;;;;;;13.35;100.00;100049.75;5018245;28;20514;-80
2022/10/24 07:41:26;;;;;;;4.47;1.37;;;;;;;13.74;100.00;100114.69;5001057;28;20442;-78
2022/10/24 07:43:53;;;;;;;3.80;1.50;;;;;;;13.13;100.00;100011.78;5018346;28;20447;-81
2022/10/24 07:46:21;;;;;;;4.03;1.40;;;;;;;14.65;100.00;100245.25;5019586;28;20891;-82
2022/10/24 07:48:51;;;;;;;3.40;1.40;;;;;;;15.09;100.00;100287.91;5020694;28;20458;-82
2022/10/24 07:51:17;;;;;;;4.03;1.50;;;;;;;13.54;100.00;100026.19;5014986;28;20447;-82
2022/10/24 07:53:43;;;;;;;4.67;1.33;;;;;;;13.99;100.00;100115.22;5022104;28;20805;-78
2022/10/24 07:56:14;;;;;;;3.33;1.30;;;;;;;13.29;100.00;99980.66;5019051;28;20455;-83
2022/10/24 07:58:41;;;;;;;8.70;1.70;;;;;;;14.11;100.00;100103.59;5021978;28;20737;-83
2022/10/24 08:01:13;;;;;;;6.60;1.60;;;;;;;14.41;100.00;100141.13;5022063;28;20444;-82
2022/10/24 08:03:39;;;;;;;7.67;1.57;;;;;;;15.36;100.00;100275.47;5020336;28;20427;-83
2022/10/24 08:06:06;;;;;;;7.37;1.90;;;;;;;13.81;100.00;100031.84;5023101;28;20444;-83
2022/10/24 08:08:32;;;;;;;14.03;1.93;;;;;;;14.11;100.00;100090.09;5016168;28;20200;-82
2022/10/24 08:10:57;;;;;;;3.27;1.53;;;;;;;13.95;100.00;100043.16;5007435;28;20455;-80
2022/10/24 08:13:23;;;;;;;2.80;1.20;;;;;;;13.76;100.00;100019.06;5017338;28;20199;-83
2022/10/24 08:15:48;;;;;;;8.40;2.07;;;;;;;14.28;100.00;100077.47;5020062;28;20192;-80
2022/10/24 08:18:14;;;;;;;8.53;2.07;;;;;;;14.66;100.00;100146.19;5021384;28;20217;-80
2022/10/24 08:20:39;;;;;;;3.77;1.53;;;;;;;14.96;100.00;100150.50;5020653;28;20189;-83
2022/10/24 08:23:05;;;;;;;4.83;1.50;;;;;;;14.21;100.00;100045.28;5020896;28;20184;-86
2022/10/24 08:25:30;;;;;;;8.80;2.27;;;;;;;13.94;100.00;100015.38;5021573;28;20196;-87
2022/10/24 08:27:56;;;;;;;5.17;1.50;;;;;;;14.55;100.00;100112.81;5020196;28;20220;-84
2022/10/24 08:30:22;;;;;;;8.77;1.97;;;;;;;15.75;100.00;100266.66;5002792;28;20573;-81
2022/10/24 08:32:47;;;;;;;9.17;1.97;;;;;;;14.63;100.00;100093.50;5018430;28;20648;-85
2022/10/24 08:35:18;;;;;;;5.40;1.80;;;;;;;15.05;100.00;100141.75;5021149;28;20454;-82
2022/10/24 08:37:44;;;;;;;7.43;1.33;;;;;;;14.15;100.00;99986.91;5017656;28;20204;-84
2022/10/24 08:40:18;;;;;;;4.90;1.53;;;;;;;14.53;100.00;100085.25;5021111;28;20439;-84
2022/10/24 08:42:44;;;;;;;6.37;1.40;;;;;;;15.82;100.00;100278.09;5023069;28;20493;-81
2022/10/24 08:45:33;;;;;;;10.17;2.70;;;;;;;14.14;100.00;100020.31;5020495;28;20817;-86
2022/10/24 08:48:08;;;;;;;7.47;1.80;;;;;;;14.25;100.00;100051.81;5021095;28;21898;-82
2022/10/24 08:50:35;;;;;;;7.90;1.70;;;;;;;14.01;100.00;99967.50;5006060;28;20442;-81
2022/10/24 08:53:36;;;;;;;10.00;1.70;;;;;;;15.34;100.00;100147.06;5020564;28;20451;-80
2022/10/24 08:56:03;;;;;;;7.90;2.20;;;;;;;14.57;100.00;100026.22;4967590;28;20457;-86
2022/10/24 08:58:34;;;;;;;6.10;2.40;;;;;;;15.26;100.00;100172.59;5013863;28;21085;-84
2022/10/24 09:01:03;;;;;;;10.00;2.37;;;;;;;14.71;100.00;100056.41;4988453;28;20490;-78
2022/10/24 09:03:38;;;;;;;7.43;2.77;;;;;;;14.23;100.00;99972.19;5016938;28;20497;-83
2022/10/24 09:06:31;;;;;;;12.43;1.60;;;;;;;14.95;100.00;100108.34;5020967;28;20439;-87
2022/10/24 09:09:15;;;;;;;5.17;1.70;;;;;;;16.00;100.00;100261.63;4998852;28;20494;-84
2022/10/24 09:12:05;;;;;;;8.30;1.57;;;;;;;14.90;100.00;100104.50;5016973;28;20439;-87
2022/10/24 09:14:34;;;;;;;9.20;1.40;;;;;;;14.77;100.00;100034.63;5017716;28;20448;-89
2022/10/24 09:17:11;;;;;;;8.30;1.43;;;;;;;14.63;100.00;100063.81;5008211;28;20531;-83
2022/10/24 09:19:37;;;;;;;14.17;2.13;;;;;;;14.11;100.00;99963.34;5018543;28;20554;-84
2022/10/24 09:22:05;;;;;;;6.00;1.90;;;;;;;15.29;100.00;100165.88;5004677;28;20447;-89
2022/10/24 09:24:36;;;;;;;10.60;2.07;;;;;;;15.94;100.00;100278.00;5001990;28;20447;-81
2022/10/24 09:27:04;;;;;;;8.43;1.80;;;;;;;14.62;100.00;100083.78;5018626;28;20955;-85
2022/10/24 09:29:32;;;;;;;12.23;1.53;;;;;;;14.81;100.00;100080.84;5019811;28;20456;-81
2022/10/24 09:31:59;;;;;;;10.20;1.40;;;;;;;14.57;100.00;100081.00;5018061;28;20532;-84
2022/10/24 09:34:24;;;;;;;13.77;2.30;;;;;;;14.22;100.00;100006.44;5010841;28;20956;-80
2022/10/24 09:36:50;;;;;;;7.03;2.10;;;;;;;14.33;100.00;100044.41;5019458;28;20529;-82
2022/10/24 09:39:30;;;;;;;5.83;1.40;;;;;;;15.90;100.00;100266.88;5021290;28;20298;-82
2022/10/24 09:41:58;;;;;;;6.37;2.07;;;;;;;15.23;100.00;100183.91;5022432;28;20447;-83
2022/10/24 09:44:30;;;;;;;5.70;1.50;;;;;;;15.36;100.00;100220.56;4993865;28;20440;-85
2022/10/24 09:46:56;;;;;;;4.63;1.53;;;;;;;15.97;100.00;100296.47;5007187;28;20492;-80
2022/10/24 09:49:25;;;;;;;7.27;1.93;;;;;;;14.27;100.00;100018.41;5013674;28;20614;-79
2022/10/24 09:52:21;;;;;;;3.60;1.40;;;;;;;15.95;100.00;100283.19;5017525;28;20657;-80
2022/10/24 09:55:05;;;;;;;4.40;1.97;;;;;;;14.83;100.00;100109.25;5012443;28;20526;-78
2022/10/24 09:57:40;;;;;;;7.40;2.10;;;;;;;13.86;100.00;99961.03;5021477;28;20459;-78
2022/10/24 10:00:20;;;;;;;6.60;2.37;;;;;;;14.22;100.00;100044.19;5020658;28;20429;-78
2022/10/24 10:03:04;;;;;;;6.33;1.63;;;;;;;14.64;100.00;100129.44;5021655;28;20416;-82
2022/10/24 10:05:54;;;;;;;9.43;2.07;;;;;;;15.25;100.00;100213.38;5020436;28;20463;-86
2022/10/24 10:08:23;;;;;;;10.97;1.83;;;;;;;14.89;100.00;100164.97;5019195;28;20954;-79
2022/10/24 10:10:59;;;;;;;9.43;1.90;;;;;;;14.32;100.00;100077.81;5006474;28;20439;-78
2022/10/24 10:13:27;;;;;;;9.73;1.90;;;;;;;14.34;100.00;100002.84;5020391;28;20430;-81
2022/10/24 10:16:01;;;;;;;3.00;1.37;;;;;;;14.61;100.00;100065.97;5021610;28;20518;-80
2022/10/24 10:18:31;;;;;;;7.90;1.67;;;;;;;14.43;100.00;100026.47;5023036;28;20490;-79
2022/10/24 10:21:16;;;;;;;5.27;1.63;;;;;;;15.48;100.00;100198.91;5002843;28;20658;-79
2022/10/24 10:23:46;;;;;;;6.03;1.70;;;;;;;16.22;100.00;100317.66;5022173;28;20454;-86
2022/10/24 10:26:26;;;;;;;9.83;1.63;;;;;;;16.12;100.00;100323.75;5020673;28;20434;-82
2022/10/24 10:29:05;;;;;;;9.43;1.87;;;;;;;15.48;100.00;100224.03;5022574;28;20959;-77
2022/10/24 10:31:43;;;;;;;5.10;1.60;;;;;;;14.69;100.00;100116.00;5020442;28;20434;-81
2022/10/24 10:34:15;;;;;;;4.60;1.20;;;;;;;15.44;100.00;100203.13;5021096;28;20510;-80
2022/10/24 10:36:57;;;;;;;5.93;1.53;;;;;;;16.38;100.00;100322.22;5021841;28;20439;-79
2022/10/24 10:39:37;;;;;;;6.33;2.07;;;;;;;15.19;100.00;100174.66;4998964;28;20481;-84
2022/10/24 10:42:11;;;;;;;6.10;1.80;;;;;;;16.28;100.00;100327.47;5020896;28;20419;-79
2022/10/24 10:44:57;;;;;;;7.77;1.47;;;;;;;16.21;100.00;100321.44;5022314;28;20414;-83
2022/10/24 10:48:11;;;;;;;10.80;1.40;;;;;;;16.24;100.00;100329.88;5020264;28;21013;-88
2022/10/24 10:50:41;;;;;;;5.43;1.57;;;;;;;15.06;100.00;100153.38;5002068;28;20442;-79
2022/10/24 10:53:38;;;;;;;6.63;2.10;;;;;;;16.33;100.00;100326.72;5021695;28;20462;-81
2022/10/24 10:56:25;;;;;;;3.03;1.63;;;;;;;16.56;100.00;100321.09;5011938;28;20496;-78
2022/10/24 10:58:53;;;;;;;7.13;1.60;;;;;;;16.91;100.00;100328.88;5018340;28;20506;-81
2022/10/24 11:02:02;;;;;;;7.73;1.90;;;;;;;16.43;100.00;100224.84;5021868;28;20419;-78
2022/10/24 11:04:41;;;;;;;6.67;1.60;;;;;;;15.94;100.00;100107.59;5013740;28;20431;-82
2022/10/24 11:07:15;;;;;;;4.67;1.27;;;;;;;17.06;100.00;100306.53;5018316;28;20447;-84
2022/10/24 11:09:46;;;;;;;6.97;1.30;;;;;;;17.23;100.00;100306.44;5018749;28;20477;-78
2022/10/24 11:12:14;;;;;;;11.43;1.43;;;;;;;17.33;100.00;100303.84;5020936;28;20434;-81
2022/10/24 11:14:44;;;;;;;11.67;1.50;;;;;;;15.48;100.00;100048.38;5019433;28;20498;-81
2022/10/24 11:17:15;;;;;;;2.60;0.97;;;;;;;16.09;100.00;100074.53;5020001;28;20522;-78
2022/10/24 11:20:11;;;;;;;7.63;1.67;;;;;;;16.11;100.00;100034.50;5018828;28;20463;-81
2022/10/24 11:22:47;;;;;;;7.83;1.60;;;;;;;15.73;100.00;100010.03;5022263;28;20427;-78
2022/10/24 11:25:25;;;;;;;9.53;1.50;;;;;;;16.18;100.00;100124.41;5020249;28;20503;-84
2022/10/24 11:28:11;;;;;;;6.50;2.10;;;;;;;16.67;100.00;100251.66;5018985;28;20459;-77